This is the latest recevied weather packets stored in our database for station/object CX2SA-13. If no packets are shown the sender has not sent any weather packets the latest 10 day(s).
| Time | Temp. | Humidity | Pressure | Rain* | Wind** | Luminosity | Snow |
|---|---|---|---|---|---|---|---|
| 1778020185 | 22.22° C | 95% | 1008.4 hPa | 16.26 mm | - | - | - |
| 1778019284 | 22.78° C | 94% | 1008.4 hPa | 13.97 mm | - | - | - |
| 1778018384 | 22.78° C | 94% | 1008.1 hPa | 13.72 mm | - | - | - |
| 1778017485 | 22.78° C | 94% | 1008.1 hPa | 13.21 mm | - | - | - |
| 1778016584 | 22.78° C | 94% | 1008.1 hPa | 13.21 mm | - | - | - |
| 1778015685 | 22.22° C | 94% | 1008.4 hPa | 13.21 mm | - | - | - |
| 1778014786 | 22.22° C | 95% | 1008.4 hPa | 13.21 mm | - | - | - |
| 1778013884 | 22.78° C | 95% | 1008.8 hPa | 13.21 mm | - | - | - |
| 1778012985 | 23.33° C | 95% | 1009.1 hPa | 13.21 mm | - | - | - |
| 1778012086 | 23.33° C | 94% | 1008.8 hPa | 13.21 mm | - | - | - |
| 1778011184 | 23.33° C | 94% | 1009.4 hPa | 9.4 mm | - | - | - |
| 1778010285 | 28.33° C | 76% | 1008.8 hPa | 0 mm | - | - | - |
| 1778009383 | 28.89° C | 74% | 1008.4 hPa | 0 mm | - | - | - |
| 1778008484 | 29.44° C | 72% | 1008.4 hPa | 0 mm | - | - | - |
| 1778007585 | 30° C | 71% | 1008.4 hPa | 0 mm | - | - | - |
| 1778006684 | 31.11° C | 68% | 1008.8 hPa | 0 mm | - | - | - |
| 1778005785 | 31.67° C | 68% | 1008.4 hPa | 0 mm | - | - | - |
| 1778004885 | 31.11° C | 69% | 1008.8 hPa | 0 mm | - | - | - |
| 1778003984 | 30.56° C | 71% | 1008.8 hPa | 0 mm | - | - | - |
| 1778003085 | 31.11° C | 69% | 1008.8 hPa | 0 mm | - | - | - |
| 1778002186 | 30.56° C | 72% | 1009.1 hPa | 0 mm | - | - | - |
| 1778001284 | 30.56° C | 71% | 1009.4 hPa | 0 mm | - | - | - |
| 1778000385 | 30.56° C | 71% | 1009.4 hPa | 0 mm | - | - | - |
| 1777999484 | 31.11° C | 68% | 1009.4 hPa | 0 mm | - | - | - |
| 1777998584 | 30.56° C | 70% | 1010.5 hPa | 0 mm | - | - | - |
* Rain since midnight (hover to see other rain measurements)
** Current wind speed in m/s (hover to see current wind gust speed)